createdAt,value
2019-04-21T00:00:25.833Z,95.20
2019-04-21T00:02:59.581Z,95.90
2019-04-21T00:05:52.678Z,95.20
2019-04-21T00:08:24.874Z,95.10
2019-04-21T00:10:59.360Z,94.90
2019-04-21T00:13:22.590Z,95.20
2019-04-21T00:15:44.206Z,95.00
2019-04-21T00:18:14.401Z,94.90
2019-04-21T00:20:49.697Z,95.30
2019-04-21T00:23:33.247Z,95.00
2019-04-21T00:26:01.966Z,95.70
2019-04-21T00:28:42.506Z,96.60
2019-04-21T00:31:14.129Z,95.90
2019-04-21T00:33:30.046Z,95.70
2019-04-21T00:36:05.080Z,95.90
2019-04-21T00:39:02.712Z,96.60
2019-04-21T00:41:19.021Z,95.70
2019-04-21T00:43:46.499Z,95.70
2019-04-21T00:46:17.445Z,95.20
2019-04-21T00:48:59.237Z,95.00
2019-04-21T00:54:12.660Z,94.70
2019-04-21T00:56:36.595Z,94.90
2019-04-21T00:59:05.779Z,94.90
2019-04-21T01:01:38.240Z,94.10
2019-04-21T01:04:09.726Z,94.20
2019-04-21T01:06:43.383Z,93.90
2019-04-21T01:09:07.983Z,93.50
2019-04-21T01:11:49.580Z,94.00
2019-04-21T01:14:31.501Z,93.70
2019-04-21T01:16:51.674Z,93.40
2019-04-21T01:19:20.963Z,93.40
2019-04-21T01:21:34.264Z,93.80
2019-04-21T01:24:11.794Z,93.50
2019-04-21T01:26:47.033Z,93.20
2019-04-21T01:29:29.086Z,92.80
2019-04-21T01:32:05.129Z,92.60
2019-04-21T01:34:32.985Z,92.50
2019-04-21T01:36:58.685Z,92.90
2019-04-21T01:39:44.048Z,92.50
2019-04-21T01:42:09.513Z,92.20
2019-04-21T01:44:43.085Z,92.20
2019-04-21T01:47:14.601Z,92.00
2019-04-21T01:49:34.747Z,92.10
2019-04-21T01:52:24.683Z,92.20
2019-04-21T01:54:57.645Z,91.80
2019-04-21T01:57:27.938Z,92.00
2019-04-21T01:59:51.594Z,92.10
2019-04-21T02:02:29.387Z,92.00
2019-04-21T02:05:10.530Z,92.40
2019-04-21T02:07:34.555Z,92.60
2019-04-21T02:10:11.449Z,92.40
2019-04-21T02:12:56.828Z,92.30
2019-04-21T02:15:36.043Z,92.70
2019-04-21T02:17:59.649Z,93.00
2019-04-21T02:20:26.960Z,93.10
2019-04-21T02:23:23.015Z,93.20
2019-04-21T02:25:40.985Z,93.20
2019-04-21T02:28:14.792Z,93.50
2019-04-21T02:30:56.611Z,93.60
2019-04-21T02:36:22.753Z,92.90
2019-04-21T02:40:57.567Z,93.20
2019-04-21T02:43:56.373Z,92.60
2019-04-21T02:49:07.850Z,92.30
2019-04-21T02:51:45.227Z,92.60
2019-04-21T02:54:32.401Z,92.90
2019-04-21T02:56:34.273Z,92.20
2019-04-21T03:07:19.193Z,92.90
2019-04-21T03:09:54.977Z,93.40
2019-04-21T03:12:20.104Z,93.70
2019-04-21T03:17:29.530Z,93.80
2019-04-21T03:20:17.587Z,93.20
2019-04-21T03:22:53.510Z,93.50
2019-04-21T03:30:53.039Z,92.70
2019-04-21T03:33:24.016Z,92.60
2019-04-21T03:35:57.464Z,92.70
2019-04-21T03:40:27.218Z,93.00
2019-04-21T03:43:10.462Z,92.90
2019-04-21T03:45:39.162Z,93.10
2019-04-21T03:48:08.826Z,92.80
2019-04-21T03:50:39.495Z,92.90
2019-04-21T03:55:58.667Z,92.70
2019-04-21T04:01:04.227Z,92.40
2019-04-21T04:06:20.066Z,92.40
2019-04-21T04:09:03.519Z,92.30
2019-04-21T04:14:14.143Z,92.60
2019-04-21T04:16:39.424Z,93.80
2019-04-21T04:24:19.217Z,95.70
2019-04-21T04:26:45.552Z,95.60
2019-04-21T04:29:19.195Z,95.80
2019-04-21T04:34:21.780Z,95.60
2019-04-21T04:39:38.651Z,95.40
2019-04-21T04:47:19.779Z,95.50
2019-04-21T04:49:49.053Z,96.00
2019-04-21T04:55:03.524Z,95.00
2019-04-21T04:57:42.032Z,95.20
2019-04-21T05:00:21.988Z,94.90
2019-04-21T05:02:33.695Z,95.10
2019-04-21T05:05:13.698Z,95.80
2019-04-21T05:12:37.662Z,96.20
2019-04-21T05:15:19.290Z,94.70
2019-04-21T05:22:44.751Z,95.90
2019-04-21T05:25:08.337Z,95.60
2019-04-21T05:27:38.619Z,95.00
2019-04-21T05:30:21.966Z,95.20
2019-04-21T05:32:52.773Z,94.40
2019-04-21T05:35:47.706Z,94.40
2019-04-21T05:38:12.789Z,94.40
2019-04-21T05:40:38.939Z,94.50
2019-04-21T05:43:26.006Z,94.40
2019-04-21T05:45:51.986Z,95.00
2019-04-21T05:48:28.323Z,94.10
2019-04-21T05:50:53.674Z,94.50
2019-04-21T05:56:05.005Z,94.30
2019-04-21T05:58:34.932Z,93.60
2019-04-21T06:01:16.617Z,93.30
2019-04-21T06:03:44.889Z,93.20
2019-04-21T06:08:46.902Z,91.10
2019-04-21T06:11:19.060Z,90.90
2019-04-21T06:13:55.150Z,90.20
2019-04-21T06:16:26.044Z,90.40
2019-04-21T06:18:56.100Z,88.70
2019-04-21T06:21:25.216Z,90.60
2019-04-21T06:23:51.549Z,89.30
2019-04-21T06:26:50.398Z,90.00
2019-04-21T06:31:57.838Z,90.00
2019-04-21T06:34:00.507Z,90.30
2019-04-21T06:36:56.720Z,90.10
2019-04-21T06:41:43.174Z,90.70
2019-04-21T06:46:45.687Z,90.60
2019-04-21T06:49:15.576Z,89.80
2019-04-21T06:51:48.311Z,88.30
2019-04-21T06:54:23.891Z,87.30
2019-04-21T06:57:23.124Z,84.00
2019-04-21T06:59:23.441Z,81.50
2019-04-21T07:02:01.215Z,79.70
2019-04-21T07:04:31.177Z,80.50
2019-04-21T07:06:59.236Z,79.70
2019-04-21T07:09:31.647Z,80.70
2019-04-21T07:11:59.842Z,80.00
2019-04-21T07:14:32.001Z,77.00
2019-04-21T07:17:15.976Z,75.70
2019-04-21T07:19:41.015Z,74.80
2019-04-21T07:22:12.342Z,72.00
2019-04-21T07:24:57.364Z,70.80
2019-04-21T07:27:16.166Z,67.40
2019-04-21T07:29:47.769Z,65.60
2019-04-21T07:32:19.157Z,62.90
2019-04-21T07:34:45.919Z,56.70
2019-04-21T07:37:12.591Z,55.70
2019-04-21T07:39:45.072Z,54.10
2019-04-21T07:42:17.476Z,54.90
2019-04-21T07:44:46.090Z,55.00
2019-04-21T07:47:26.518Z,53.10
2019-04-21T07:50:03.476Z,50.20
2019-04-21T07:52:39.514Z,51.20
2019-04-21T07:55:18.699Z,49.00
2019-04-21T07:57:36.868Z,49.60
2019-04-21T08:00:20.944Z,49.50
2019-04-21T08:03:05.242Z,47.90
2019-04-21T08:05:20.065Z,46.40
2019-04-21T08:07:52.151Z,45.50
2019-04-21T08:10:16.818Z,43.80
2019-04-21T08:12:47.849Z,42.30
2019-04-21T08:17:57.263Z,41.70
2019-04-21T08:20:24.160Z,42.50
2019-04-21T08:22:58.994Z,41.20
2019-04-21T08:25:27.337Z,41.30
2019-04-21T08:28:01.155Z,43.30
2019-04-21T08:30:32.255Z,41.10
2019-04-21T08:33:14.355Z,41.00
2019-04-21T08:35:52.931Z,40.10
2019-04-21T08:38:10.588Z,39.90
2019-04-21T08:40:40.854Z,39.00
2019-04-21T08:43:10.861Z,38.10
2019-04-21T08:45:45.319Z,37.30
2019-04-21T08:48:13.572Z,37.30
2019-04-21T08:50:47.527Z,36.00
2019-04-21T08:53:14.426Z,35.40
2019-04-21T08:56:12.215Z,34.90
2019-04-21T08:58:59.034Z,35.50
2019-04-21T09:01:34.278Z,35.20
2019-04-21T09:04:13.366Z,36.00
2019-04-21T09:09:21.014Z,35.50
2019-04-21T09:11:50.932Z,33.20
2019-04-21T09:14:20.653Z,32.20
2019-04-21T09:16:47.239Z,32.10
2019-04-21T09:19:34.087Z,31.40
2019-04-21T09:21:54.975Z,30.10
2019-04-21T09:24:43.062Z,30.20
2019-04-21T09:26:57.909Z,29.90
2019-04-21T09:29:21.750Z,30.60
2019-04-21T09:31:44.456Z,30.30
2019-04-21T09:34:21.941Z,29.50
2019-04-21T09:36:51.130Z,29.60
2019-04-21T09:39:20.155Z,29.60
2019-04-21T09:41:51.203Z,29.30
2019-04-21T09:44:25.429Z,29.70
2019-04-21T09:46:54.871Z,30.40
2019-04-21T09:49:27.045Z,30.20
2019-04-21T09:51:55.156Z,29.90
2019-04-21T09:54:31.165Z,30.00
2019-04-21T09:57:02.883Z,30.40
2019-04-21T09:59:34.954Z,30.70
2019-04-21T10:02:09.653Z,30.60
2019-04-21T10:04:31.330Z,29.40
2019-04-21T10:07:02.388Z,28.60
2019-04-21T10:09:33.365Z,28.50
2019-04-21T10:12:03.445Z,27.40
2019-04-21T10:14:33.428Z,27.50
2019-04-21T10:17:23.830Z,27.60
2019-04-21T10:19:55.109Z,27.30
2019-04-21T10:22:26.576Z,28.10
2019-04-21T10:24:56.700Z,28.70
2019-04-21T10:27:27.306Z,28.30
2019-04-21T10:29:58.175Z,28.40
2019-04-21T10:32:28.239Z,28.70
2019-04-21T10:34:59.201Z,28.50
2019-04-21T10:37:42.543Z,29.10
2019-04-21T10:40:00.918Z,28.90
2019-04-21T10:42:31.230Z,29.50
2019-04-21T10:45:01.163Z,29.30
2019-04-21T10:47:31.342Z,29.00
2019-04-21T10:50:02.407Z,29.30
2019-04-21T10:52:50.984Z,28.20
2019-04-21T10:55:41.479Z,27.50
2019-04-21T10:58:11.064Z,27.00
2019-04-21T11:00:43.899Z,28.40
2019-04-21T11:03:31.021Z,27.90
2019-04-21T11:06:03.230Z,28.40
2019-04-21T11:08:37.872Z,27.80
2019-04-21T11:11:05.752Z,28.40
2019-04-21T11:13:36.943Z,27.90
2019-04-21T11:16:07.076Z,28.30
2019-04-21T11:18:37.797Z,28.80
2019-04-21T11:21:09.076Z,28.40
2019-04-21T11:23:40.349Z,28.80
2019-04-21T11:26:11.871Z,28.90
2019-04-21T11:28:43.006Z,28.90
2019-04-21T11:31:13.345Z,28.30
2019-04-21T11:33:43.175Z,28.10
2019-04-21T11:36:13.413Z,29.10
2019-04-21T11:39:05.374Z,30.30
2019-04-21T11:41:19.638Z,32.10
2019-04-21T11:43:50.786Z,34.30
2019-04-21T11:46:20.842Z,34.20
2019-04-21T11:48:50.684Z,34.70
2019-04-21T11:51:20.507Z,34.60
2019-04-21T11:53:50.752Z,34.60
2019-04-21T11:56:20.919Z,35.60
2019-04-21T11:58:51.840Z,34.70
2019-04-21T12:01:21.847Z,35.50
2019-04-21T12:03:51.819Z,37.10
2019-04-21T12:06:28.605Z,38.60
2019-04-21T12:08:56.408Z,38.10
2019-04-21T12:11:25.221Z,39.60
2019-04-21T12:13:56.267Z,40.40
2019-04-21T12:16:26.207Z,41.50
2019-04-21T12:18:56.789Z,43.00
2019-04-21T12:21:29.559Z,45.10
2019-04-21T12:23:58.587Z,46.70
2019-04-21T12:26:28.615Z,45.00
2019-04-21T12:28:59.616Z,43.70
2019-04-21T12:31:47.636Z,43.00
2019-04-21T12:34:17.945Z,43.10
2019-04-21T12:36:50.703Z,47.20
2019-04-21T12:39:20.874Z,49.40
2019-04-21T12:41:50.857Z,49.00
2019-04-21T12:44:20.999Z,49.20
2019-04-21T12:46:51.957Z,50.00
2019-04-21T12:49:22.106Z,49.90
2019-04-21T12:51:53.412Z,49.30
2019-04-21T12:54:23.796Z,49.90
2019-04-21T12:56:53.916Z,49.40
2019-04-21T12:59:24.603Z,50.70
2019-04-21T13:01:54.850Z,51.80
2019-04-21T13:04:25.911Z,52.00
2019-04-21T13:06:57.251Z,51.80
2019-04-21T13:09:29.177Z,51.80
2019-04-21T13:11:59.455Z,51.50
2019-04-21T13:14:29.658Z,51.70
2019-04-21T13:16:59.670Z,53.00
2019-04-21T13:19:29.610Z,53.40
2019-04-21T13:22:00.201Z,52.60
2019-04-21T13:24:31.787Z,52.30
2019-04-21T13:27:03.628Z,52.00
2019-04-21T13:29:34.330Z,52.60
2019-04-21T13:32:05.477Z,52.10
2019-04-21T13:34:36.049Z,51.40
2019-04-21T13:37:06.099Z,51.90
2019-04-21T13:40:04.855Z,53.10
2019-04-21T13:42:21.377Z,54.40
2019-04-21T13:44:44.494Z,55.50
2019-04-21T13:47:14.580Z,57.60
2019-04-21T13:49:45.484Z,57.80
2019-04-21T13:52:15.566Z,58.20
2019-04-21T13:54:45.600Z,56.40
2019-04-21T13:57:16.687Z,54.80
2019-04-21T13:59:49.328Z,53.60
2019-04-21T14:02:18.595Z,53.40
2019-04-21T14:04:49.655Z,54.80
2019-04-21T14:07:20.493Z,54.70
2019-04-21T14:09:57.633Z,53.70
2019-04-21T14:12:23.338Z,53.70
2019-04-21T14:14:54.417Z,52.20
2019-04-21T14:17:24.664Z,52.00
2019-04-21T14:19:55.254Z,53.20
2019-04-21T14:22:26.403Z,54.70
2019-04-21T14:24:56.413Z,54.50
2019-04-21T14:27:26.315Z,55.60
2019-04-21T14:29:57.598Z,55.90
2019-04-21T14:32:29.593Z,55.30
2019-04-21T14:34:59.132Z,57.90
2019-04-21T14:37:28.981Z,58.90
2019-04-21T14:40:06.580Z,59.10
2019-04-21T14:42:31.853Z,62.70
2019-04-21T14:45:03.190Z,64.90
2019-04-21T14:47:35.081Z,62.20
2019-04-21T14:50:13.465Z,64.80
2019-04-21T14:52:44.323Z,67.00
2019-04-21T14:55:22.788Z,69.50
2019-04-21T14:57:52.852Z,71.90
2019-04-21T15:00:24.995Z,73.20
2019-04-21T15:02:55.829Z,72.90
2019-04-21T15:05:27.226Z,75.20
2019-04-21T15:07:57.330Z,75.20
2019-04-21T15:10:30.386Z,73.70
2019-04-21T15:12:59.385Z,73.50
2019-04-21T15:15:29.937Z,72.30
2019-04-21T15:17:59.919Z,71.30
2019-04-21T15:20:30.955Z,69.10
2019-04-21T15:23:02.043Z,67.20
2019-04-21T15:25:32.313Z,66.40
2019-04-21T15:28:03.195Z,63.60
2019-04-21T15:30:34.330Z,59.40
2019-04-21T15:33:04.565Z,56.10
2019-04-21T15:35:35.290Z,54.30
2019-04-21T15:38:05.624Z,54.30
2019-04-21T15:40:44.585Z,57.70
2019-04-21T15:43:08.392Z,59.40
2019-04-21T15:45:39.036Z,59.20
2019-04-21T15:48:09.870Z,59.60
2019-04-21T15:50:41.832Z,61.60
2019-04-21T15:53:13.917Z,64.60
2019-04-21T15:55:58.991Z,68.00
2019-04-21T15:58:30.627Z,71.20
2019-04-21T16:01:04.868Z,75.50
2019-04-21T16:03:34.825Z,78.30
2019-04-21T16:06:05.593Z,80.30
2019-04-21T16:08:35.529Z,81.80
2019-04-21T16:11:08.073Z,84.50
2019-04-21T16:13:37.334Z,86.50
2019-04-21T16:16:08.526Z,86.90
2019-04-21T16:18:38.487Z,88.30
2019-04-21T16:21:08.410Z,88.70
2019-04-21T16:23:38.389Z,89.20
2019-04-21T16:26:08.715Z,90.50
2019-04-21T16:28:39.493Z,90.90
2019-04-21T16:31:10.195Z,91.50
2019-04-21T16:33:41.046Z,92.20
2019-04-21T16:36:13.120Z,92.50
2019-04-21T16:38:43.694Z,92.90
2019-04-21T16:41:14.227Z,93.30
2019-04-21T16:43:45.033Z,93.70
2019-04-21T16:46:15.784Z,94.20
2019-04-21T16:48:45.982Z,94.40
2019-04-21T16:51:16.044Z,94.60
2019-04-21T16:53:53.672Z,94.90
2019-04-21T16:56:25.264Z,95.10
2019-04-21T16:59:00.773Z,95.40
2019-04-21T17:01:32.032Z,95.50
2019-04-21T17:04:02.361Z,95.70
2019-04-21T17:06:33.305Z,96.00
2019-04-21T17:09:03.285Z,96.20
2019-04-21T17:11:35.334Z,96.40
2019-04-21T17:14:05.774Z,96.80
2019-04-21T17:16:57.133Z,97.20
2019-04-21T17:19:14.704Z,97.50
2019-04-21T17:21:41.649Z,97.90
2019-04-21T17:24:12.701Z,97.80
2019-04-21T17:26:44.727Z,98.00
2019-04-21T17:29:16.863Z,98.10
2019-04-21T17:31:47.775Z,98.30
2019-04-21T17:34:21.595Z,98.50
2019-04-21T17:36:50.969Z,98.70
2019-04-21T17:39:22.752Z,98.70
2019-04-21T17:42:05.277Z,98.90
2019-04-21T17:44:25.685Z,99.10
2019-04-21T17:47:01.393Z,99.10
2019-04-21T17:49:28.693Z,99.40
2019-04-21T17:52:11.367Z,99.60
2019-04-21T17:54:49.081Z,99.90
2019-04-21T17:57:36.464Z,99.90
2019-04-21T18:00:14.076Z,99.90
2019-04-21T18:02:46.303Z,99.90
2019-04-21T18:05:19.157Z,99.90
2019-04-21T18:07:46.527Z,99.90
2019-04-21T18:10:11.542Z,99.90
2019-04-21T18:12:41.420Z,99.90
2019-04-21T18:15:16.324Z,99.90
2019-04-21T18:17:32.214Z,99.90
2019-04-21T18:20:03.845Z,99.90
2019-04-21T18:22:54.964Z,99.90
2019-04-21T18:25:43.930Z,99.90
2019-04-21T18:28:00.845Z,99.90
2019-04-21T18:30:42.680Z,99.90
2019-04-21T18:33:21.361Z,99.90
2019-04-21T18:36:00.215Z,99.90
2019-04-21T18:38:59.741Z,99.90
2019-04-21T18:41:15.261Z,99.90
2019-04-21T18:44:15.495Z,99.90
2019-04-21T18:46:59.267Z,99.90
2019-04-21T18:49:19.334Z,99.90
2019-04-21T18:52:00.813Z,99.90
2019-04-21T18:54:44.441Z,99.90
2019-04-21T18:57:10.648Z,99.90
2019-04-21T18:59:39.385Z,99.90
2019-04-21T19:02:09.857Z,99.90
2019-04-21T19:04:40.522Z,99.90
2019-04-21T19:07:20.005Z,99.90
2019-04-21T19:12:47.771Z,99.90
2019-04-21T19:14:57.967Z,99.90
2019-04-21T19:22:38.756Z,99.90
2019-04-21T19:25:18.002Z,99.90
2019-04-21T19:27:45.496Z,99.90
2019-04-21T19:30:26.902Z,99.90
2019-04-21T19:32:45.348Z,99.90
2019-04-21T19:35:04.112Z,99.90
2019-04-21T19:37:45.255Z,99.90
2019-04-21T19:40:27.560Z,99.90
2019-04-21T19:42:54.982Z,99.90
2019-04-21T19:45:27.808Z,99.90
2019-04-21T19:47:59.455Z,99.90
2019-04-21T19:50:37.265Z,99.90
2019-04-21T19:52:57.437Z,99.90
2019-04-21T19:55:20.332Z,99.90
2019-04-21T19:57:50.777Z,99.90
2019-04-21T20:00:22.269Z,99.90
2019-04-21T20:02:54.506Z,99.90
2019-04-21T20:05:35.302Z,99.90
2019-04-21T20:08:12.908Z,99.90
2019-04-21T20:10:48.372Z,99.90
2019-04-21T20:13:25.960Z,99.90
2019-04-21T20:15:52.370Z,99.90
2019-04-21T20:18:18.796Z,99.90
2019-04-21T20:20:37.285Z,99.90
2019-04-21T20:23:13.188Z,99.90
2019-04-21T20:25:48.455Z,99.90
2019-04-21T20:28:22.247Z,99.90
2019-04-21T20:31:03.753Z,99.90
2019-04-21T20:33:48.694Z,99.90
2019-04-21T20:36:12.235Z,99.90
2019-04-21T20:38:34.089Z,99.90
2019-04-21T20:41:01.870Z,99.90
2019-04-21T20:43:42.545Z,99.90
2019-04-21T20:46:12.555Z,99.90
2019-04-21T20:48:42.126Z,99.90
2019-04-21T20:51:18.306Z,99.90
2019-04-21T20:53:46.525Z,99.90
2019-04-21T20:56:15.637Z,99.90
2019-04-21T20:58:53.710Z,99.90
2019-04-21T21:01:54.960Z,99.90
2019-04-21T21:03:51.840Z,99.90
2019-04-21T21:06:26.144Z,99.90
2019-04-21T21:09:01.356Z,99.90
2019-04-21T21:11:43.570Z,99.90
2019-04-21T21:14:09.992Z,99.90
2019-04-21T21:21:40.441Z,99.90
2019-04-21T21:24:10.255Z,99.90
2019-04-21T21:26:52.138Z,99.90
2019-04-21T21:29:16.879Z,99.90
2019-04-21T21:31:48.874Z,99.90
2019-04-21T21:34:20.917Z,99.90
2019-04-21T21:36:55.282Z,99.90
2019-04-21T21:39:21.358Z,99.90
2019-04-21T21:41:45.188Z,99.90
2019-04-21T21:44:18.265Z,99.90
2019-04-21T21:46:59.172Z,99.90
2019-04-21T21:49:37.079Z,99.90
2019-04-21T21:51:59.228Z,99.90
2019-04-21T21:54:20.008Z,99.90
2019-04-21T21:56:50.536Z,99.90
2019-04-21T21:59:25.730Z,99.90
2019-04-21T22:01:54.897Z,99.90
2019-04-21T22:04:28.201Z,99.90
2019-04-21T22:07:03.858Z,99.90
2019-04-21T22:09:30.292Z,99.90
2019-04-21T22:12:06.295Z,99.90
2019-04-21T22:14:41.081Z,99.90
2019-04-21T22:17:22.089Z,99.90
2019-04-21T22:20:03.066Z,99.90
2019-04-21T22:22:23.344Z,99.90
2019-04-21T22:24:54.477Z,99.90
2019-04-21T22:27:14.909Z,99.90
2019-04-21T22:29:49.783Z,99.90
2019-04-21T22:32:21.585Z,99.90
2019-04-21T22:34:54.682Z,99.90
2019-04-21T22:37:35.360Z,99.90
2019-04-21T22:40:07.098Z,99.90
2019-04-21T22:42:29.453Z,99.90
2019-04-21T22:44:56.651Z,99.90
2019-04-21T22:47:32.677Z,99.90
2019-04-21T22:49:59.075Z,99.90
2019-04-21T22:52:31.619Z,99.90
2019-04-21T22:55:09.336Z,99.90
2019-04-21T22:57:39.795Z,99.90
2019-04-21T23:00:20.379Z,99.90
2019-04-21T23:02:56.127Z,99.90
2019-04-21T23:05:30.277Z,99.90
2019-04-21T23:07:59.945Z,99.90
2019-04-21T23:10:27.347Z,99.90
2019-04-21T23:13:04.816Z,99.90
2019-04-21T23:15:39.539Z,99.90
2019-04-21T23:18:22.146Z,99.90
2019-04-21T23:20:55.133Z,99.90
2019-04-21T23:23:30.310Z,99.90
2019-04-21T23:25:53.109Z,99.90
2019-04-21T23:28:36.410Z,99.90
2019-04-21T23:31:00.444Z,99.90
2019-04-21T23:33:18.220Z,99.90
2019-04-21T23:35:49.256Z,99.90
2019-04-21T23:38:26.602Z,99.90
2019-04-21T23:40:56.301Z,99.90
2019-04-21T23:43:27.305Z,99.90
2019-04-21T23:45:55.351Z,99.90
2019-04-21T23:48:36.563Z,99.90
2019-04-21T23:51:13.881Z,99.90
2019-04-21T23:53:29.317Z,99.90
2019-04-21T23:56:01.191Z,99.90
2019-04-21T23:58:34.440Z,99.90
